Time;durP1;ratioP1;P1;durP2;ratioP2;P2;SDS_P1;SDS_P2;PMS_P1;PMS_P2;Temp;Humidity;BMP_temperature;BMP_pressure;BME280_temperature;BME280_humidity;BME280_pressure;Samples;Min_cycle;Max_cycle;Signal;HPM_P1;HPM_P2
2021/05/13 00:00:20;;;;;;;48.40;44.30;;;;;;;;;;5042556;28;20437;-83
2021/05/13 00:02:49;;;;;;;40.93;37.70;;;;;;;;;;5022770;28;20924;-84
2021/05/13 00:05:16;;;;;;;49.50;44.83;;;;;;;;;;5041994;28;20417;-84
2021/05/13 00:07:52;;;;;;;43.73;40.27;;;;;;;;;;5044997;28;20434;-84
2021/05/13 00:10:35;;;;;;;43.57;39.70;;;;;;;;;;5048163;28;20427;-84
2021/05/13 00:13:05;;;;;;;41.43;38.03;;;;;;;;;;5008580;28;20448;-83
2021/05/13 00:15:34;;;;;;;44.93;41.20;;;;;;;;;;5047969;28;20939;-84
2021/05/13 00:18:03;;;;;;;47.23;43.17;;;;;;;;;;5052172;28;20417;-82
2021/05/13 00:20:32;;;;;;;43.43;39.70;;;;;;;;;;5045388;28;20459;-83
2021/05/13 00:22:59;;;;;;;43.20;39.60;;;;;;;;;;5042276;28;20430;-84
2021/05/13 00:25:26;;;;;;;42.53;39.13;;;;;;;;;;5040366;28;20414;-84
2021/05/13 00:27:55;;;;;;;45.00;41.20;;;;;;;;;;5046537;28;20444;-84
2021/05/13 00:30:22;;;;;;;47.10;43.00;;;;;;;;;;5046539;28;20440;-83
2021/05/13 00:32:49;;;;;;;44.00;40.40;;;;;;;;;;5040727;28;20422;-84
2021/05/13 00:35:18;;;;;;;48.30;44.10;;;;;;;;;;5042353;28;20418;-84
2021/05/13 00:37:47;;;;;;;47.77;43.47;;;;;;;;;;5042300;28;20439;-84
2021/05/13 00:40:15;;;;;;;49.07;44.57;;;;;;;;;;5042618;28;20414;-84
2021/05/13 00:42:42;;;;;;;46.97;43.27;;;;;;;;;;5037570;28;20798;-83
2021/05/13 00:45:11;;;;;;;48.20;43.90;;;;;;;;;;5037663;28;20482;-84
2021/05/13 00:47:45;;;;;;;47.50;43.30;;;;;;;;;;5037189;28;20447;-83
2021/05/13 00:50:12;;;;;;;49.03;44.60;;;;;;;;;;5019579;28;20426;-83
2021/05/13 00:52:40;;;;;;;47.33;43.17;;;;;;;;;;5036171;28;20451;-83
2021/05/13 00:55:08;;;;;;;50.03;45.33;;;;;;;;;;5035988;28;20424;-84
2021/05/13 00:57:35;;;;;;;47.27;43.20;;;;;;;;;;5036409;28;20435;-84
2021/05/13 01:00:17;;;;;;;48.03;43.77;;;;;;;;;;5038103;28;20865;-83
2021/05/13 01:02:44;;;;;;;49.53;44.77;;;;;;;;;;5037498;28;20476;-83
2021/05/13 01:05:11;;;;;;;51.50;46.73;;;;;;;;;;5037289;28;20959;-83
2021/05/13 01:07:39;;;;;;;49.10;44.40;;;;;;;;;;5037626;28;20462;-84
2021/05/13 01:10:07;;;;;;;48.67;44.17;;;;;;;;;;5038710;28;20780;-83
2021/05/13 01:12:36;;;;;;;46.10;42.20;;;;;;;;;;5037760;28;20415;-83
2021/05/13 01:15:08;;;;;;;48.27;43.97;;;;;;;;;;5038152;28;20410;-84
2021/05/13 01:17:40;;;;;;;48.20;43.83;;;;;;;;;;5038820;28;20443;-84
2021/05/13 01:20:08;;;;;;;48.57;44.07;;;;;;;;;;5037747;28;20497;-84
2021/05/13 01:22:36;;;;;;;48.83;44.43;;;;;;;;;;5038602;28;20414;-84
2021/05/13 01:25:04;;;;;;;49.80;45.00;;;;;;;;;;5038794;28;20465;-84
2021/05/13 01:27:30;;;;;;;49.30;44.93;;;;;;;;;;5036950;28;20760;-83
2021/05/13 01:29:59;;;;;;;46.50;42.50;;;;;;;;;;5034976;28;20501;-83
2021/05/13 01:32:25;;;;;;;49.53;45.33;;;;;;;;;;5034966;28;20410;-84
2021/05/13 01:34:52;;;;;;;48.23;43.93;;;;;;;;;;5034693;28;20411;-83
2021/05/13 01:37:19;;;;;;;45.37;41.37;;;;;;;;;;5034602;28;20802;-84
2021/05/13 01:39:47;;;;;;;46.23;42.17;;;;;;;;;;5035098;28;20493;-84
2021/05/13 01:42:14;;;;;;;47.80;43.60;;;;;;;;;;5035584;28;20448;-84
2021/05/13 01:44:41;;;;;;;46.77;42.77;;;;;;;;;;5035699;28;20468;-84
2021/05/13 01:47:08;;;;;;;47.07;42.40;;;;;;;;;;5035878;28;20415;-84
2021/05/13 01:49:35;;;;;;;46.93;42.70;;;;;;;;;;5034871;28;20500;-83
2021/05/13 01:52:02;;;;;;;47.20;43.10;;;;;;;;;;5046355;28;20969;-84
2021/05/13 01:54:29;;;;;;;46.50;42.30;;;;;;;;;;5035581;28;20428;-84
2021/05/13 01:57:02;;;;;;;47.20;43.10;;;;;;;;;;5034976;28;20415;-84
2021/05/13 01:59:29;;;;;;;50.13;45.20;;;;;;;;;;5034893;28;20410;-82
2021/05/13 02:01:57;;;;;;;47.00;42.90;;;;;;;;;;5034734;28;20423;-83
2021/05/13 02:04:24;;;;;;;47.77;43.77;;;;;;;;;;5034749;28;20533;-84
2021/05/13 02:06:51;;;;;;;46.90;42.97;;;;;;;;;;5017382;28;20461;-84
2021/05/13 02:09:18;;;;;;;45.93;41.93;;;;;;;;;;5035325;28;20984;-84
2021/05/13 02:11:45;;;;;;;46.10;42.23;;;;;;;;;;5036042;28;20407;-84
2021/05/13 02:14:15;;;;;;;46.40;42.43;;;;;;;;;;5035079;28;20501;-84
2021/05/13 02:16:41;;;;;;;48.70;44.30;;;;;;;;;;5034331;28;20417;-84
2021/05/13 02:19:08;;;;;;;47.17;43.00;;;;;;;;;;5036158;28;20406;-84
2021/05/13 02:21:36;;;;;;;47.13;42.87;;;;;;;;;;5019396;28;20486;-83
2021/05/13 02:24:03;;;;;;;49.93;45.23;;;;;;;;;;5035227;28;20529;-84
2021/05/13 02:26:30;;;;;;;48.33;43.73;;;;;;;;;;5035423;28;20419;-84
2021/05/13 02:28:57;;;;;;;46.23;42.03;;;;;;;;;;5018012;28;20447;-84
2021/05/13 02:31:25;;;;;;;45.27;41.40;;;;;;;;;;5035708;28;20880;-84
2021/05/13 02:33:52;;;;;;;45.60;41.60;;;;;;;;;;5034842;28;20433;-84
2021/05/13 02:36:19;;;;;;;46.53;42.27;;;;;;;;;;5034501;28;20459;-84
2021/05/13 02:38:46;;;;;;;46.40;42.30;;;;;;;;;;5035133;28;20443;-83
2021/05/13 02:41:13;;;;;;;45.80;41.83;;;;;;;;;;5034299;28;20438;-83
2021/05/13 02:43:40;;;;;;;47.43;43.00;;;;;;;;;;5034023;28;20495;-83
2021/05/13 02:46:07;;;;;;;47.90;43.60;;;;;;;;;;5034083;28;20444;-84
2021/05/13 02:48:35;;;;;;;47.87;43.47;;;;;;;;;;5034031;28;20761;-84
2021/05/13 02:51:01;;;;;;;49.10;44.60;;;;;;;;;;5033637;28;20455;-84
2021/05/13 02:53:28;;;;;;;49.17;44.27;;;;;;;;;;5036144;28;20509;-84
2021/05/13 02:55:55;;;;;;;46.03;42.00;;;;;;;;;;5037838;28;20916;-84
2021/05/13 02:58:22;;;;;;;44.63;40.87;;;;;;;;;;5020220;28;20857;-84
2021/05/13 03:00:53;;;;;;;45.43;41.60;;;;;;;;;;5038097;28;20458;-84
2021/05/13 03:03:20;;;;;;;46.57;42.47;;;;;;;;;;5037394;28;20895;-84
2021/05/13 03:05:51;;;;;;;47.27;43.17;;;;;;;;;;5037210;28;20536;-84
2021/05/13 03:08:19;;;;;;;43.40;39.60;;;;;;;;;;5037428;28;20417;-84
2021/05/13 03:10:46;;;;;;;46.73;42.57;;;;;;;;;;5037290;28;20414;-84
2021/05/13 03:13:19;;;;;;;45.63;41.50;;;;;;;;;;5020029;28;20459;-84
2021/05/13 03:15:46;;;;;;;47.00;42.70;;;;;;;;;;5037310;28;20470;-83
2021/05/13 03:18:13;;;;;;;50.67;45.87;;;;;;;;;;5020298;28;20446;-84
2021/05/13 03:20:43;;;;;;;46.20;42.03;;;;;;;;;;5037449;28;20444;-84
2021/05/13 03:23:12;;;;;;;44.43;40.50;;;;;;;;;;5037415;28;20413;-84
2021/05/13 03:25:42;;;;;;;46.07;41.97;;;;;;;;;;5020393;28;20909;-84
2021/05/13 03:28:09;;;;;;;45.07;41.27;;;;;;;;;;5037005;28;20453;-84
2021/05/13 03:30:40;;;;;;;43.60;39.67;;;;;;;;;;5019707;28;20436;-83
2021/05/13 03:33:07;;;;;;;43.67;39.77;;;;;;;;;;5019337;28;20951;-84
2021/05/13 03:35:34;;;;;;;43.67;39.63;;;;;;;;;;5019757;28;20422;-83
2021/05/13 03:38:01;;;;;;;42.03;38.23;;;;;;;;;;5037266;28;20451;-84
2021/05/13 03:40:30;;;;;;;44.93;40.53;;;;;;;;;;5037415;28;20505;-83
2021/05/13 03:42:57;;;;;;;43.63;39.93;;;;;;;;;;5037705;28;20505;-83
2021/05/13 03:45:24;;;;;;;42.67;38.80;;;;;;;;;;5037582;28;20483;-84
2021/05/13 03:47:51;;;;;;;42.27;38.43;;;;;;;;;;5037536;28;20436;-84
2021/05/13 03:50:18;;;;;;;41.87;38.00;;;;;;;;;;5019417;28;20433;-84
2021/05/13 03:52:45;;;;;;;43.13;39.23;;;;;;;;;;5036811;28;20474;-84
2021/05/13 03:55:12;;;;;;;43.33;39.30;;;;;;;;;;5036959;28;20460;-84
2021/05/13 03:57:42;;;;;;;41.73;38.23;;;;;;;;;;5036472;28;20450;-79
2021/05/13 04:00:11;;;;;;;41.63;37.70;;;;;;;;;;5036315;28;20422;-79
2021/05/13 04:02:38;;;;;;;44.33;40.37;;;;;;;;;;5036240;28;20492;-79
2021/05/13 04:05:06;;;;;;;44.50;40.33;;;;;;;;;;5036098;28;20472;-84
2021/05/13 04:07:34;;;;;;;44.03;40.13;;;;;;;;;;5036438;28;20823;-84
2021/05/13 04:10:02;;;;;;;43.17;39.57;;;;;;;;;;5036823;28;20419;-80
2021/05/13 04:12:29;;;;;;;49.40;44.50;;;;;;;;;;5036209;28;20749;-80
2021/05/13 04:14:58;;;;;;;47.63;42.77;;;;;;;;;;5035957;28;20435;-80
2021/05/13 04:17:25;;;;;;;47.40;42.63;;;;;;;;;;5035991;28;20768;-80
2021/05/13 04:19:52;;;;;;;44.23;40.07;;;;;;;;;;5035870;28;20442;-80
2021/05/13 04:22:19;;;;;;;44.53;40.30;;;;;;;;;;5035625;28;20411;-80
2021/05/13 04:24:46;;;;;;;44.83;40.53;;;;;;;;;;5035659;28;20506;-80
2021/05/13 04:27:13;;;;;;;47.77;43.17;;;;;;;;;;5035796;28;20418;-80
2021/05/13 04:29:40;;;;;;;47.30;42.70;;;;;;;;;;5035387;28;20414;-80
2021/05/13 04:32:08;;;;;;;46.13;41.73;;;;;;;;;;5018145;28;20439;-80
2021/05/13 04:34:35;;;;;;;47.00;42.60;;;;;;;;;;5035630;28;20526;-80
2021/05/13 04:37:02;;;;;;;46.13;42.00;;;;;;;;;;5035570;28;20486;-80
2021/05/13 04:39:28;;;;;;;46.13;41.83;;;;;;;;;;5035320;28;20415;-79
2021/05/13 04:41:55;;;;;;;44.00;39.70;;;;;;;;;;5035503;28;20438;-80
2021/05/13 04:44:22;;;;;;;44.33;40.33;;;;;;;;;;5035515;28;20487;-80
2021/05/13 04:46:57;;;;;;;43.93;40.03;;;;;;;;;;5035803;28;20439;-80
2021/05/13 04:49:25;;;;;;;44.57;40.57;;;;;;;;;;5035472;28;20497;-80
2021/05/13 04:51:52;;;;;;;44.40;40.43;;;;;;;;;;5035935;28;20434;-80
2021/05/13 04:54:20;;;;;;;44.00;39.73;;;;;;;;;;5034967;28;20923;-79
2021/05/13 04:56:47;;;;;;;42.57;38.20;;;;;;;;;;5034971;28;20432;-80
2021/05/13 04:59:14;;;;;;;43.93;40.10;;;;;;;;;;5034891;28;20919;-80
2021/05/13 05:01:41;;;;;;;46.20;42.10;;;;;;;;;;5001234;28;20425;-79
2021/05/13 05:04:08;;;;;;;44.80;40.90;;;;;;;;;;5034910;28;20517;-79
2021/05/13 05:06:35;;;;;;;44.60;40.43;;;;;;;;;;5034653;28;20507;-80
2021/05/13 05:09:02;;;;;;;46.20;41.90;;;;;;;;;;5035071;28;20771;-80
2021/05/13 05:11:29;;;;;;;43.47;39.50;;;;;;;;;;5034888;28;20418;-80
2021/05/13 05:13:56;;;;;;;45.93;41.30;;;;;;;;;;5034989;28;20446;-80
2021/05/13 05:16:23;;;;;;;43.93;39.93;;;;;;;;;;5034893;28;20415;-80
2021/05/13 05:18:51;;;;;;;45.00;41.03;;;;;;;;;;5017608;28;20426;-80
2021/05/13 05:21:17;;;;;;;44.80;40.70;;;;;;;;;;5035420;28;20449;-80
2021/05/13 05:23:45;;;;;;;48.20;43.80;;;;;;;;;;5017660;28;20465;-80
2021/05/13 05:26:12;;;;;;;44.30;40.50;;;;;;;;;;5034703;28;20911;-80
2021/05/13 05:28:39;;;;;;;45.50;41.10;;;;;;;;;;5034775;28;20745;-80
2021/05/13 05:31:06;;;;;;;41.60;37.90;;;;;;;;;;5034231;28;20482;-80
2021/05/13 05:33:33;;;;;;;43.97;40.27;;;;;;;;;;5034368;28;20411;-80
2021/05/13 05:36:00;;;;;;;42.67;38.87;;;;;;;;;;5034142;28;20418;-80
2021/05/13 05:38:27;;;;;;;42.87;39.10;;;;;;;;;;5034246;28;20406;-80
2021/05/13 05:40:55;;;;;;;41.63;38.03;;;;;;;;;;5034269;28;20398;-80
2021/05/13 05:43:22;;;;;;;42.20;38.50;;;;;;;;;;5016405;28;20454;-80
2021/05/13 05:45:49;;;;;;;41.87;38.27;;;;;;;;;;5016656;28;20952;-80
2021/05/13 05:48:16;;;;;;;41.07;37.53;;;;;;;;;;5034489;28;20432;-80
2021/05/13 05:50:43;;;;;;;43.73;39.73;;;;;;;;;;5034259;28;20439;-80
2021/05/13 05:53:11;;;;;;;41.43;37.83;;;;;;;;;;5034063;28;20472;-80
2021/05/13 05:55:38;;;;;;;43.60;39.80;;;;;;;;;;5016500;28;20470;-80
2021/05/13 05:58:06;;;;;;;42.57;38.57;;;;;;;;;;5033917;28;20448;-80
2021/05/13 06:00:34;;;;;;;42.67;39.07;;;;;;;;;;5033803;28;20483;-79
2021/05/13 06:03:01;;;;;;;39.83;36.20;;;;;;;;;;5033587;28;20457;-80
2021/05/13 06:05:28;;;;;;;40.10;36.57;;;;;;;;;;5033191;28;20940;-80
2021/05/13 06:07:55;;;;;;;39.07;35.77;;;;;;;;;;5034062;28;20413;-80
2021/05/13 06:10:22;;;;;;;39.63;36.27;;;;;;;;;;5034163;28;20489;-81
2021/05/13 06:12:49;;;;;;;38.90;35.40;;;;;;;;;;5034041;28;20439;-79
2021/05/13 06:15:17;;;;;;;40.33;36.83;;;;;;;;;;5033871;28;20899;-79
2021/05/13 06:17:44;;;;;;;41.43;38.03;;;;;;;;;;5033827;28;20836;-80
2021/05/13 06:20:18;;;;;;;43.50;39.90;;;;;;;;;;5033774;28;20454;-82
2021/05/13 06:22:44;;;;;;;38.40;35.10;;;;;;;;;;5033728;28;20447;-79
2021/05/13 06:25:12;;;;;;;38.90;35.70;;;;;;;;;;5033445;28;20465;-79
2021/05/13 06:27:39;;;;;;;35.60;32.53;;;;;;;;;;5033495;28;20411;-80
2021/05/13 06:30:06;;;;;;;35.17;32.33;;;;;;;;;;5033862;28;20475;-80
2021/05/13 06:32:34;;;;;;;36.90;33.90;;;;;;;;;;5033328;28;20406;-80
2021/05/13 06:35:01;;;;;;;35.33;32.10;;;;;;;;;;5033743;28;20472;-79
2021/05/13 06:37:28;;;;;;;33.57;31.07;;;;;;;;;;5033812;28;20441;-79
2021/05/13 06:39:55;;;;;;;33.70;31.13;;;;;;;;;;5033706;28;20419;-79
2021/05/13 06:42:22;;;;;;;32.40;29.97;;;;;;;;;;5034372;28;20423;-80
2021/05/13 06:44:49;;;;;;;32.20;29.90;;;;;;;;;;5033984;28;20458;-87
2021/05/13 06:47:16;;;;;;;31.93;29.53;;;;;;;;;;5033345;28;20518;-80
2021/05/13 06:49:44;;;;;;;32.23;29.77;;;;;;;;;;5033690;28;20504;-80
2021/05/13 06:52:11;;;;;;;32.37;29.83;;;;;;;;;;5033358;28;20415;-79
2021/05/13 06:54:38;;;;;;;30.77;28.33;;;;;;;;;;5033623;28;20418;-79
2021/05/13 06:57:06;;;;;;;32.27;29.93;;;;;;;;;;5033573;28;20418;-79
2021/05/13 06:59:33;;;;;;;31.23;28.73;;;;;;;;;;5033492;28;20474;-80
2021/05/13 07:02:00;;;;;;;29.50;27.23;;;;;;;;;;5033239;28;20419;-80
2021/05/13 07:04:27;;;;;;;26.63;24.60;;;;;;;;;;5033655;28;20453;-79
2021/05/13 07:06:55;;;;;;;25.00;23.20;;;;;;;;;;5034926;28;20834;-79
2021/05/13 07:09:22;;;;;;;28.03;26.07;;;;;;;;;;5035689;28;20418;-79
2021/05/13 07:11:49;;;;;;;25.70;24.00;;;;;;;;;;5016775;28;20429;-79
2021/05/13 07:14:16;;;;;;;26.63;24.70;;;;;;;;;;5016812;28;20425;-79
2021/05/13 07:16:43;;;;;;;25.93;24.30;;;;;;;;;;5035162;28;20423;-78
2021/05/13 07:19:10;;;;;;;27.37;25.37;;;;;;;;;;5038930;28;20417;-79
2021/05/13 07:21:37;;;;;;;26.57;24.67;;;;;;;;;;5045746;28;20853;-79
2021/05/13 07:24:10;;;;;;;28.10;26.00;;;;;;;;;;5048819;28;20483;-92
2021/05/13 07:26:37;;;;;;;27.30;25.27;;;;;;;;;;5039795;28;20435;-79
2021/05/13 07:29:08;;;;;;;27.67;25.60;;;;;;;;;;5039537;28;20423;-84
2021/05/13 07:31:35;;;;;;;27.10;25.03;;;;;;;;;;5031393;28;20440;-86
2021/05/13 07:34:01;;;;;;;26.53;24.93;;;;;;;;;;5055494;28;20431;-90
2021/05/13 07:36:28;;;;;;;25.53;23.93;;;;;;;;;;5055252;28;20410;-86
2021/05/13 07:38:56;;;;;;;26.57;24.80;;;;;;;;;;5055488;28;20432;-88
2021/05/13 07:41:24;;;;;;;26.60;24.50;;;;;;;;;;5040494;28;20527;-81
2021/05/13 07:43:52;;;;;;;25.73;24.03;;;;;;;;;;5042816;28;20479;-85
2021/05/13 07:46:21;;;;;;;26.70;24.93;;;;;;;;;;5042383;28;20473;-88
2021/05/13 07:48:50;;;;;;;25.80;24.00;;;;;;;;;;5040150;28;20482;-82
2021/05/13 07:51:19;;;;;;;26.60;24.60;;;;;;;;;;5040156;28;20795;-83
2021/05/13 07:53:46;;;;;;;25.70;24.00;;;;;;;;;;5021829;28;20517;-83
2021/05/13 07:56:13;;;;;;;26.47;24.33;;;;;;;;;;5038962;28;20413;-84
2021/05/13 07:58:41;;;;;;;26.63;24.70;;;;;;;;;;5023008;28;20425;-95
2021/05/13 08:01:08;;;;;;;26.40;24.60;;;;;;;;;;5039286;28;20414;-84
2021/05/13 08:03:35;;;;;;;26.27;24.27;;;;;;;;;;5038452;28;20401;-84
2021/05/13 08:06:01;;;;;;;27.20;25.03;;;;;;;;;;5038886;28;20471;-83
2021/05/13 08:08:28;;;;;;;25.80;23.70;;;;;;;;;;5041291;28;20482;-84
2021/05/13 08:10:55;;;;;;;25.10;23.43;;;;;;;;;;5039726;28;20411;-83
2021/05/13 08:13:22;;;;;;;25.40;23.60;;;;;;;;;;5041211;28;20440;-84
2021/05/13 08:15:50;;;;;;;25.37;23.57;;;;;;;;;;5057205;28;20457;-83
2021/05/13 08:18:17;;;;;;;24.93;23.23;;;;;;;;;;5044240;28;20441;-82
2021/05/13 08:20:44;;;;;;;26.40;24.70;;;;;;;;;;5052765;28;20504;-84
2021/05/13 08:23:11;;;;;;;25.80;24.13;;;;;;;;;;5022023;28;20430;-84
2021/05/13 08:25:38;;;;;;;26.20;24.50;;;;;;;;;;5036385;28;21013;-84
2021/05/13 08:28:05;;;;;;;27.40;24.97;;;;;;;;;;5038571;28;20908;-84
2021/05/13 08:30:33;;;;;;;25.63;23.93;;;;;;;;;;5037181;28;20520;-85
2021/05/13 08:33:01;;;;;;;26.80;25.00;;;;;;;;;;5036242;28;20455;-85
2021/05/13 08:35:27;;;;;;;26.10;24.20;;;;;;;;;;5036980;28;20419;-85
2021/05/13 08:37:55;;;;;;;25.07;23.33;;;;;;;;;;5037861;28;20407;-85
2021/05/13 08:40:22;;;;;;;25.90;24.20;;;;;;;;;;5021627;28;20448;-85
2021/05/13 08:42:49;;;;;;;26.13;24.13;;;;;;;;;;5037736;28;20447;-85
2021/05/13 08:45:16;;;;;;;24.17;22.67;;;;;;;;;;5037589;28;20854;-85
2021/05/13 08:47:46;;;;;;;25.60;23.87;;;;;;;;;;5037246;28;20953;-85
2021/05/13 08:50:14;;;;;;;24.63;23.03;;;;;;;;;;5050111;28;20499;-86
2021/05/13 08:52:41;;;;;;;26.57;24.73;;;;;;;;;;5056502;28;20396;-84
2021/05/13 08:55:09;;;;;;;24.90;23.20;;;;;;;;;;5056231;28;20443;-84
2021/05/13 08:57:36;;;;;;;25.90;24.20;;;;;;;;;;5044344;28;20446;-84
2021/05/13 09:00:04;;;;;;;25.80;24.00;;;;;;;;;;5035611;28;20418;-85
2021/05/13 09:02:31;;;;;;;25.07;23.30;;;;;;;;;;5035680;28;20502;-81
2021/05/13 09:04:59;;;;;;;23.80;22.40;;;;;;;;;;5035762;28;20491;-82
2021/05/13 09:07:28;;;;;;;25.33;23.67;;;;;;;;;;5035316;28;20485;-81
2021/05/13 09:09:58;;;;;;;24.53;22.43;;;;;;;;;;5036047;28;20445;-81
2021/05/13 09:12:26;;;;;;;26.20;24.30;;;;;;;;;;5036936;28;20996;-80
2021/05/13 09:14:56;;;;;;;24.03;22.33;;;;;;;;;;5037259;28;20434;-82
2021/05/13 09:17:25;;;;;;;24.40;22.90;;;;;;;;;;5035312;28;20736;-82
2021/05/13 09:19:52;;;;;;;24.67;23.00;;;;;;;;;;5040532;28;20875;-82
2021/05/13 09:22:23;;;;;;;25.43;23.90;;;;;;;;;;5045091;28;20406;-82
2021/05/13 09:24:52;;;;;;;24.50;22.87;;;;;;;;;;5034946;28;20488;-82
2021/05/13 09:27:20;;;;;;;23.30;21.80;;;;;;;;;;5034640;28;20423;-83
2021/05/13 09:29:47;;;;;;;24.40;22.70;;;;;;;;;;5034670;28;20788;-82
2021/05/13 09:32:18;;;;;;;25.77;23.60;;;;;;;;;;5034769;28;20452;-82
2021/05/13 09:34:45;;;;;;;26.77;23.93;;;;;;;;;;5034992;28;20419;-82
2021/05/13 09:37:13;;;;;;;25.50;23.90;;;;;;;;;;5034830;28;20438;-82
2021/05/13 09:39:46;;;;;;;24.73;22.97;;;;;;;;;;5017384;28;20422;-83
2021/05/13 09:42:17;;;;;;;23.90;22.20;;;;;;;;;;5034806;28;20402;-83
2021/05/13 09:44:44;;;;;;;24.70;23.10;;;;;;;;;;5035089;28;20519;-82
2021/05/13 09:47:19;;;;;;;24.40;22.70;;;;;;;;;;5034516;28;20447;-83
2021/05/13 09:50:01;;;;;;;25.93;23.53;;;;;;;;;;5001294;28;20427;-86
2021/05/13 09:52:47;;;;;;;23.43;21.97;;;;;;;;;;5035281;28;20441;-85
2021/05/13 09:55:16;;;;;;;24.33;22.73;;;;;;;;;;5018367;28;20798;-87
2021/05/13 09:57:49;;;;;;;24.00;22.43;;;;;;;;;;5035770;28;20471;-80
2021/05/13 10:00:30;;;;;;;25.50;23.60;;;;;;;;;;5035986;28;20415;-80
2021/05/13 10:02:58;;;;;;;24.57;22.97;;;;;;;;;;5035136;28;20760;-80
2021/05/13 10:05:25;;;;;;;25.03;23.43;;;;;;;;;;5035263;28;20492;-81
2021/05/13 10:07:52;;;;;;;23.90;22.30;;;;;;;;;;5038143;28;20427;-81
2021/05/13 10:10:19;;;;;;;24.73;23.03;;;;;;;;;;5043620;28;20489;-81
2021/05/13 10:12:47;;;;;;;25.00;23.17;;;;;;;;;;5043980;28;20411;-81
2021/05/13 10:15:15;;;;;;;26.07;24.17;;;;;;;;;;5036204;28;20435;-82
2021/05/13 10:17:42;;;;;;;24.90;23.30;;;;;;;;;;5034712;28;20410;-81
2021/05/13 10:20:11;;;;;;;23.90;22.30;;;;;;;;;;5035652;28;20522;-81
2021/05/13 10:22:37;;;;;;;26.30;24.40;;;;;;;;;;5035890;28;20816;-81
2021/05/13 10:25:19;;;;;;;26.00;24.30;;;;;;;;;;5037013;28;20492;-82
2021/05/13 10:27:49;;;;;;;25.37;23.70;;;;;;;;;;5036388;28;20443;-82
2021/05/13 10:30:17;;;;;;;26.10;24.10;;;;;;;;;;5036950;28;20399;-81
2021/05/13 10:32:44;;;;;;;24.60;23.10;;;;;;;;;;5020696;28;20758;-89
2021/05/13 10:35:13;;;;;;;24.30;22.53;;;;;;;;;;5036482;28;20457;-89
2021/05/13 10:37:41;;;;;;;25.60;23.90;;;;;;;;;;5036473;28;20803;-85
2021/05/13 10:40:22;;;;;;;25.07;23.23;;;;;;;;;;5017694;28;20456;-85
2021/05/13 10:43:00;;;;;;;24.80;23.20;;;;;;;;;;5018677;28;20439;-85
2021/05/13 10:45:37;;;;;;;26.00;24.10;;;;;;;;;;5039515;28;20462;-84
2021/05/13 10:48:18;;;;;;;25.67;23.90;;;;;;;;;;5016921;28;20796;-86
2021/05/13 10:50:50;;;;;;;25.17;23.37;;;;;;;;;;5034497;28;20916;-86
2021/05/13 10:53:35;;;;;;;24.43;22.83;;;;;;;;;;5034718;28;20449;-85
2021/05/13 10:56:23;;;;;;;25.77;24.10;;;;;;;;;;5038267;28;20477;-85
2021/05/13 10:58:57;;;;;;;26.00;24.30;;;;;;;;;;5034017;28;20415;-87
2021/05/13 11:01:33;;;;;;;26.07;24.33;;;;;;;;;;5034118;28;20479;-85
2021/05/13 11:04:18;;;;;;;25.80;23.80;;;;;;;;;;5033737;28;20416;-84
2021/05/13 11:06:45;;;;;;;25.30;23.57;;;;;;;;;;5034868;28;20480;-84
2021/05/13 11:09:12;;;;;;;24.97;23.30;;;;;;;;;;5036948;28;20441;-84
2021/05/13 11:12:07;;;;;;;26.13;24.23;;;;;;;;;;5042742;28;20778;-84
2021/05/13 11:14:35;;;;;;;23.17;21.60;;;;;;;;;;5037092;28;20427;-83
2021/05/13 11:17:04;;;;;;;23.43;22.00;;;;;;;;;;5037704;28;20409;-84
2021/05/13 11:19:31;;;;;;;23.23;21.63;;;;;;;;;;5039832;28;20431;-84
2021/05/13 11:22:00;;;;;;;24.07;22.47;;;;;;;;;;5047302;28;20421;-85
2021/05/13 11:24:37;;;;;;;24.27;22.70;;;;;;;;;;5042620;28;20455;-84
2021/05/13 11:27:04;;;;;;;23.60;22.00;;;;;;;;;;5017726;28;20443;-85
2021/05/13 11:29:44;;;;;;;23.83;22.33;;;;;;;;;;5037677;28;20464;-85
2021/05/13 11:32:12;;;;;;;23.53;21.93;;;;;;;;;;5038364;28;20420;-83
2021/05/13 11:34:42;;;;;;;24.60;22.73;;;;;;;;;;5037459;28;20422;-83
2021/05/13 11:37:09;;;;;;;23.57;22.07;;;;;;;;;;5020364;28;20422;-84
2021/05/13 11:39:36;;;;;;;23.57;21.90;;;;;;;;;;5037637;28;20419;-84
2021/05/13 11:42:02;;;;;;;22.70;21.30;;;;;;;;;;5037219;28;20431;-85
2021/05/13 11:44:29;;;;;;;23.73;22.17;;;;;;;;;;5037438;28;20493;-85
2021/05/13 11:46:57;;;;;;;23.30;21.80;;;;;;;;;;5036881;28;20441;-84
2021/05/13 11:49:24;;;;;;;23.40;21.83;;;;;;;;;;5037218;28;20444;-85
2021/05/13 11:51:51;;;;;;;23.47;21.87;;;;;;;;;;5036949;28;20488;-85
2021/05/13 11:54:18;;;;;;;23.83;22.33;;;;;;;;;;5036679;28;20445;-85
2021/05/13 11:56:45;;;;;;;25.00;23.40;;;;;;;;;;5036724;28;20438;-85
2021/05/13 11:59:12;;;;;;;23.80;22.30;;;;;;;;;;5036896;28;20420;-85
2021/05/13 12:01:39;;;;;;;23.93;22.53;;;;;;;;;;5019152;28;20448;-85
2021/05/13 12:04:08;;;;;;;23.47;21.80;;;;;;;;;;5036587;28;20413;-85
2021/05/13 12:06:43;;;;;;;23.83;22.33;;;;;;;;;;5036364;28;20986;-85
2021/05/13 12:09:11;;;;;;;24.00;22.20;;;;;;;;;;5036592;28;20447;-85
2021/05/13 12:11:38;;;;;;;23.30;21.43;;;;;;;;;;5020998;28;20446;-85
2021/05/13 12:14:07;;;;;;;22.23;20.83;;;;;;;;;;5037687;28;20416;-85
2021/05/13 12:16:34;;;;;;;22.77;21.17;;;;;;;;;;5037446;28;20434;-84
2021/05/13 12:19:04;;;;;;;24.30;22.53;;;;;;;;;;5036590;28;20433;-84
2021/05/13 12:21:32;;;;;;;24.13;22.50;;;;;;;;;;5036269;28;20526;-84
2021/05/13 12:23:59;;;;;;;24.10;22.30;;;;;;;;;;5036258;28;20457;-84
2021/05/13 12:26:27;;;;;;;25.03;22.70;;;;;;;;;;5035889;28;20437;-84
2021/05/13 12:28:55;;;;;;;23.83;22.13;;;;;;;;;;5018383;28;20906;-84
2021/05/13 12:31:25;;;;;;;23.40;21.97;;;;;;;;;;5035985;28;20413;-84
2021/05/13 12:33:52;;;;;;;25.17;23.40;;;;;;;;;;5035953;28;20445;-84
2021/05/13 12:36:19;;;;;;;24.20;22.50;;;;;;;;;;5035555;28;20510;-83
2021/05/13 12:38:47;;;;;;;25.37;23.63;;;;;;;;;;5020285;28;20441;-83
2021/05/13 12:41:15;;;;;;;25.77;23.87;;;;;;;;;;5043180;28;20525;-83
2021/05/13 12:43:43;;;;;;;24.23;22.73;;;;;;;;;;5041224;28;20442;-83
2021/05/13 12:49:03;;;;;;;25.07;23.27;;;;;;;;;;5012571;28;20924;-83
2021/05/13 12:51:30;;;;;;;25.30;23.50;;;;;;;;;;4999253;28;20956;-82
2021/05/13 12:53:58;;;;;;;24.50;22.90;;;;;;;;;;4999480;28;21046;-82
2021/05/13 12:56:30;;;;;;;24.60;23.00;;;;;;;;;;5001538;28;20421;-82
2021/05/13 12:59:18;;;;;;;26.07;24.20;;;;;;;;;;5003298;28;20935;-82
2021/05/13 13:01:56;;;;;;;26.67;24.90;;;;;;;;;;4994944;28;20548;-83
2021/05/13 13:04:24;;;;;;;25.50;24.00;;;;;;;;;;4999952;28;20466;-83
2021/05/13 13:06:52;;;;;;;26.23;24.40;;;;;;;;;;5005466;28;20461;-83
2021/05/13 13:09:32;;;;;;;24.57;22.97;;;;;;;;;;5003093;28;20530;-91
2021/05/13 13:12:02;;;;;;;24.13;22.50;;;;;;;;;;5001531;28;20459;-82
2021/05/13 13:14:35;;;;;;;23.80;22.20;;;;;;;;;;5004447;28;20932;-81
2021/05/13 13:17:02;;;;;;;24.60;22.90;;;;;;;;;;4999566;28;20450;-81
2021/05/13 13:19:29;;;;;;;24.87;23.17;;;;;;;;;;5005830;28;20932;-82
2021/05/13 13:22:00;;;;;;;25.47;23.57;;;;;;;;;;5035393;28;20416;-80
2021/05/13 13:24:27;;;;;;;24.17;22.67;;;;;;;;;;5021153;28;20447;-81
2021/05/13 13:26:57;;;;;;;24.80;23.00;;;;;;;;;;5037294;28;20417;-82
2021/05/13 13:29:24;;;;;;;24.20;22.50;;;;;;;;;;5037229;28;20441;-82
2021/05/13 13:31:51;;;;;;;24.63;23.03;;;;;;;;;;5018920;28;20438;-81
2021/05/13 13:34:19;;;;;;;23.80;22.10;;;;;;;;;;5036879;28;20438;-82
2021/05/13 13:36:46;;;;;;;24.43;22.83;;;;;;;;;;5019854;28;20431;-82
2021/05/13 13:39:13;;;;;;;25.83;24.03;;;;;;;;;;5018033;28;20457;-82
2021/05/13 13:41:40;;;;;;;25.27;23.50;;;;;;;;;;5035062;28;20416;-82
2021/05/13 13:44:08;;;;;;;25.13;23.43;;;;;;;;;;5016851;28;20437;-82
2021/05/13 13:46:35;;;;;;;26.03;24.33;;;;;;;;;;5034830;28;20438;-82
2021/05/13 13:49:02;;;;;;;24.50;22.90;;;;;;;;;;5035527;28;20408;-82
2021/05/13 13:51:29;;;;;;;24.10;22.50;;;;;;;;;;5037948;28;20765;-88
2021/05/13 13:53:56;;;;;;;24.80;23.10;;;;;;;;;;5018749;28;20507;-91
2021/05/13 13:56:23;;;;;;;24.50;22.63;;;;;;;;;;5036926;28;20457;-89
2021/05/13 13:58:50;;;;;;;24.07;22.47;;;;;;;;;;5046206;28;20411;-91
2021/05/13 14:01:18;;;;;;;24.80;23.07;;;;;;;;;;5044758;28;20434;-92
2021/05/13 14:03:45;;;;;;;25.03;23.33;;;;;;;;;;5036719;28;20518;-91
2021/05/13 14:06:12;;;;;;;23.67;21.93;;;;;;;;;;5035983;28;20510;-89
2021/05/13 14:08:39;;;;;;;23.83;22.33;;;;;;;;;;5035615;28;20424;-88
2021/05/13 14:11:06;;;;;;;25.30;23.33;;;;;;;;;;5018737;28;20428;-86
2021/05/13 14:13:34;;;;;;;24.57;22.87;;;;;;;;;;5037235;28;20422;-90
2021/05/13 14:16:00;;;;;;;23.90;22.40;;;;;;;;;;5034649;28;20466;-87
2021/05/13 14:18:30;;;;;;;24.10;22.50;;;;;;;;;;5034531;28;20416;-93
2021/05/13 14:20:58;;;;;;;24.23;22.43;;;;;;;;;;5034442;28;20454;-91
2021/05/13 14:23:25;;;;;;;24.43;22.90;;;;;;;;;;5026792;28;20431;-91
2021/05/13 14:25:52;;;;;;;24.80;23.23;;;;;;;;;;5024313;28;20476;-90